sensor_id;sensor_type;location;lat;lon;timestamp;P1;durP1;ratioP1;P2;durP2;ratioP2
37284;SDS011;23172;53.550;9.964;2023-07-31T00:04:35;5.35;;;2.42;;
37284;SDS011;23172;53.550;9.964;2023-07-31T00:09:38;6.60;;;2.97;;
37284;SDS011;23172;53.550;9.964;2023-07-31T00:14:40;6.28;;;2.65;;
37284;SDS011;23172;53.550;9.964;2023-07-31T00:19:42;6.43;;;2.75;;
37284;SDS011;23172;53.550;9.964;2023-07-31T00:24:47;5.07;;;2.43;;
37284;SDS011;23172;53.550;9.964;2023-07-31T00:29:49;4.93;;;2.53;;
37284;SDS011;23172;53.550;9.964;2023-07-31T00:34:51;7.07;;;3.00;;
37284;SDS011;23172;53.550;9.964;2023-07-31T00:39:55;5.68;;;2.58;;
37284;SDS011;23172;53.550;9.964;2023-07-31T00:44:56;5.63;;;2.50;;
37284;SDS011;23172;53.550;9.964;2023-07-31T00:49:58;5.07;;;2.67;;
37284;SDS011;23172;53.550;9.964;2023-07-31T00:55:02;6.37;;;2.83;;
37284;SDS011;23172;53.550;9.964;2023-07-31T01:00:05;4.50;;;2.27;;
37284;SDS011;23172;53.550;9.964;2023-07-31T01:05:08;6.43;;;2.78;;
37284;SDS011;23172;53.550;9.964;2023-07-31T01:10:26;6.57;;;2.60;;
37284;SDS011;23172;53.550;9.964;2023-07-31T01:15:31;7.05;;;2.65;;
37284;SDS011;23172;53.550;9.964;2023-07-31T01:20:33;5.85;;;2.58;;
37284;SDS011;23172;53.550;9.964;2023-07-31T01:25:51;6.53;;;2.90;;
37284;SDS011;23172;53.550;9.964;2023-07-31T01:31:10;5.57;;;2.65;;
37284;SDS011;23172;53.550;9.964;2023-07-31T01:36:17;4.27;;;2.50;;
37284;SDS011;23172;53.550;9.964;2023-07-31T01:41:20;7.20;;;2.80;;
37284;SDS011;23172;53.550;9.964;2023-07-31T01:46:22;4.82;;;2.53;;
37284;SDS011;23172;53.550;9.964;2023-07-31T01:51:24;5.95;;;2.60;;
37284;SDS011;23172;53.550;9.964;2023-07-31T01:56:27;5.10;;;2.60;;
37284;SDS011;23172;53.550;9.964;2023-07-31T02:01:29;5.18;;;2.60;;
37284;SDS011;23172;53.550;9.964;2023-07-31T02:06:31;4.13;;;2.75;;
37284;SDS011;23172;53.550;9.964;2023-07-31T02:11:34;6.20;;;2.97;;
37284;SDS011;23172;53.550;9.964;2023-07-31T02:16:36;5.75;;;2.70;;
37284;SDS011;23172;53.550;9.964;2023-07-31T02:21:38;4.20;;;2.88;;
37284;SDS011;23172;53.550;9.964;2023-07-31T02:26:41;4.32;;;2.53;;
37284;SDS011;23172;53.550;9.964;2023-07-31T02:31:43;6.43;;;3.00;;
37284;SDS011;23172;53.550;9.964;2023-07-31T02:36:45;6.28;;;3.05;;
37284;SDS011;23172;53.550;9.964;2023-07-31T02:41:48;6.78;;;2.70;;
37284;SDS011;23172;53.550;9.964;2023-07-31T02:46:50;4.93;;;2.90;;
37284;SDS011;23172;53.550;9.964;2023-07-31T02:51:51;5.47;;;2.70;;
37284;SDS011;23172;53.550;9.964;2023-07-31T02:56:54;5.68;;;2.75;;
37284;SDS011;23172;53.550;9.964;2023-07-31T03:01:56;4.07;;;2.67;;
37284;SDS011;23172;53.550;9.964;2023-07-31T03:06:58;4.93;;;2.60;;
37284;SDS011;23172;53.550;9.964;2023-07-31T03:12:01;5.40;;;2.60;;
37284;SDS011;23172;53.550;9.964;2023-07-31T03:17:04;4.40;;;2.60;;
37284;SDS011;23172;53.550;9.964;2023-07-31T03:22:06;5.17;;;2.93;;
37284;SDS011;23172;53.550;9.964;2023-07-31T03:27:09;3.42;;;2.50;;
37284;SDS011;23172;53.550;9.964;2023-07-31T03:32:11;4.13;;;2.20;;
37284;SDS011;23172;53.550;9.964;2023-07-31T03:37:13;3.47;;;2.37;;
37284;SDS011;23172;53.550;9.964;2023-07-31T03:42:16;3.73;;;2.33;;
37284;SDS011;23172;53.550;9.964;2023-07-31T03:47:18;4.32;;;2.80;;
37284;SDS011;23172;53.550;9.964;2023-07-31T03:52:19;3.33;;;2.80;;
37284;SDS011;23172;53.550;9.964;2023-07-31T03:57:23;3.70;;;2.65;;
37284;SDS011;23172;53.550;9.964;2023-07-31T04:02:24;3.60;;;2.67;;
37284;SDS011;23172;53.550;9.964;2023-07-31T04:07:26;3.63;;;2.53;;
37284;SDS011;23172;53.550;9.964;2023-07-31T04:12:29;3.83;;;2.72;;
37284;SDS011;23172;53.550;9.964;2023-07-31T04:17:31;3.17;;;2.42;;
37284;SDS011;23172;53.550;9.964;2023-07-31T04:22:33;3.00;;;2.42;;
37284;SDS011;23172;53.550;9.964;2023-07-31T04:27:36;3.15;;;2.83;;
37284;SDS011;23172;53.550;9.964;2023-07-31T04:32:39;3.13;;;2.67;;
37284;SDS011;23172;53.550;9.964;2023-07-31T04:37:41;3.87;;;2.70;;
37284;SDS011;23172;53.550;9.964;2023-07-31T04:42:46;2.58;;;2.25;;
37284;SDS011;23172;53.550;9.964;2023-07-31T04:47:47;3.53;;;2.40;;
37284;SDS011;23172;53.550;9.964;2023-07-31T04:52:49;2.45;;;2.25;;
37284;SDS011;23172;53.550;9.964;2023-07-31T04:57:53;2.73;;;2.20;;
37284;SDS011;23172;53.550;9.964;2023-07-31T05:02:55;3.33;;;2.47;;
37284;SDS011;23172;53.550;9.964;2023-07-31T05:07:57;6.93;;;5.97;;
37284;SDS011;23172;53.550;9.964;2023-07-31T05:13:00;3.22;;;2.92;;
37284;SDS011;23172;53.550;9.964;2023-07-31T05:18:02;3.03;;;2.75;;
37284;SDS011;23172;53.550;9.964;2023-07-31T05:23:04;2.70;;;2.50;;
37284;SDS011;23172;53.550;9.964;2023-07-31T05:28:08;2.75;;;2.50;;
37284;SDS011;23172;53.550;9.964;2023-07-31T05:33:09;3.00;;;2.70;;
37284;SDS011;23172;53.550;9.964;2023-07-31T05:38:11;3.00;;;2.80;;
37284;SDS011;23172;53.550;9.964;2023-07-31T05:43:14;3.00;;;2.70;;
37284;SDS011;23172;53.550;9.964;2023-07-31T05:48:16;2.83;;;2.53;;
37284;SDS011;23172;53.550;9.964;2023-07-31T05:53:18;3.13;;;2.70;;
37284;SDS011;23172;53.550;9.964;2023-07-31T05:58:21;2.92;;;2.70;;
37284;SDS011;23172;53.550;9.964;2023-07-31T06:03:23;2.80;;;2.60;;
37284;SDS011;23172;53.550;9.964;2023-07-31T06:08:25;2.90;;;2.60;;
37284;SDS011;23172;53.550;9.964;2023-07-31T06:13:28;2.83;;;2.50;;
37284;SDS011;23172;53.550;9.964;2023-07-31T06:18:30;3.00;;;2.70;;
37284;SDS011;23172;53.550;9.964;2023-07-31T06:23:32;2.90;;;2.60;;
37284;SDS011;23172;53.550;9.964;2023-07-31T06:28:35;2.55;;;2.35;;
37284;SDS011;23172;53.550;9.964;2023-07-31T06:33:37;5.65;;;5.07;;
37284;SDS011;23172;53.550;9.964;2023-07-31T06:38:38;3.28;;;2.97;;
37284;SDS011;23172;53.550;9.964;2023-07-31T06:43:42;3.70;;;3.40;;
37284;SDS011;23172;53.550;9.964;2023-07-31T06:48:43;5.53;;;2.92;;
37284;SDS011;23172;53.550;9.964;2023-07-31T06:53:45;3.08;;;2.75;;
37284;SDS011;23172;53.550;9.964;2023-07-31T06:58:48;2.90;;;2.70;;
37284;SDS011;23172;53.550;9.964;2023-07-31T07:03:50;3.38;;;3.08;;
37284;SDS011;23172;53.550;9.964;2023-07-31T07:08:52;2.88;;;2.67;;
37284;SDS011;23172;53.550;9.964;2023-07-31T07:13:55;4.37;;;3.40;;
37284;SDS011;23172;53.550;9.964;2023-07-31T07:18:57;4.83;;;4.33;;
37284;SDS011;23172;53.550;9.964;2023-07-31T07:23:59;3.65;;;3.30;;
37284;SDS011;23172;53.550;9.964;2023-07-31T07:29:03;3.22;;;2.80;;
37284;SDS011;23172;53.550;9.964;2023-07-31T07:34:07;2.40;;;2.20;;
37284;SDS011;23172;53.550;9.964;2023-07-31T07:39:10;3.33;;;3.03;;
37284;SDS011;23172;53.550;9.964;2023-07-31T07:44:14;3.50;;;2.35;;
37284;SDS011;23172;53.550;9.964;2023-07-31T07:49:16;2.83;;;2.55;;
37284;SDS011;23172;53.550;9.964;2023-07-31T07:54:18;4.35;;;3.50;;
37284;SDS011;23172;53.550;9.964;2023-07-31T07:59:22;2.70;;;2.50;;
37284;SDS011;23172;53.550;9.964;2023-07-31T08:04:24;2.70;;;2.50;;
37284;SDS011;23172;53.550;9.964;2023-07-31T08:09:26;2.83;;;2.30;;
37284;SDS011;23172;53.550;9.964;2023-07-31T08:14:30;2.30;;;2.10;;
37284;SDS011;23172;53.550;9.964;2023-07-31T08:19:32;3.10;;;1.90;;
37284;SDS011;23172;53.550;9.964;2023-07-31T08:24:34;3.00;;;2.70;;
37284;SDS011;23172;53.550;9.964;2023-07-31T08:29:38;3.20;;;2.80;;
37284;SDS011;23172;53.550;9.964;2023-07-31T08:34:40;2.80;;;1.95;;
37284;SDS011;23172;53.550;9.964;2023-07-31T08:39:42;4.53;;;2.40;;
37284;SDS011;23172;53.550;9.964;2023-07-31T08:44:46;2.40;;;1.88;;
37284;SDS011;23172;53.550;9.964;2023-07-31T08:49:49;3.07;;;2.40;;
37284;SDS011;23172;53.550;9.964;2023-07-31T08:54:52;1.93;;;1.83;;
37284;SDS011;23172;53.550;9.964;2023-07-31T08:59:55;2.10;;;1.93;;
37284;SDS011;23172;53.550;9.964;2023-07-31T09:04:58;2.20;;;2.00;;
37284;SDS011;23172;53.550;9.964;2023-07-31T09:10:00;3.92;;;2.40;;
37284;SDS011;23172;53.550;9.964;2023-07-31T09:15:05;2.45;;;2.00;;
37284;SDS011;23172;53.550;9.964;2023-07-31T09:20:13;3.77;;;2.57;;
37284;SDS011;23172;53.550;9.964;2023-07-31T09:25:16;2.40;;;1.80;;
37284;SDS011;23172;53.550;9.964;2023-07-31T09:30:19;2.30;;;1.87;;
37284;SDS011;23172;53.550;9.964;2023-07-31T09:35:28;1.50;;;1.40;;
37284;SDS011;23172;53.550;9.964;2023-07-31T09:40:31;3.30;;;2.80;;
37284;SDS011;23172;53.550;9.964;2023-07-31T09:45:35;3.20;;;2.90;;
37284;SDS011;23172;53.550;9.964;2023-07-31T09:50:38;2.90;;;1.90;;
37284;SDS011;23172;53.550;9.964;2023-07-31T09:55:41;3.05;;;2.40;;
37284;SDS011;23172;53.550;9.964;2023-07-31T10:00:44;2.25;;;1.50;;
37284;SDS011;23172;53.550;9.964;2023-07-31T10:05:49;3.80;;;2.00;;
37284;SDS011;23172;53.550;9.964;2023-07-31T10:10:53;3.87;;;2.57;;
37284;SDS011;23172;53.550;9.964;2023-07-31T10:15:58;2.30;;;1.90;;
37284;SDS011;23172;53.550;9.964;2023-07-31T10:21:01;2.55;;;1.85;;
37284;SDS011;23172;53.550;9.964;2023-07-31T10:26:03;2.97;;;2.60;;
37284;SDS011;23172;53.550;9.964;2023-07-31T10:31:07;2.67;;;1.93;;
37284;SDS011;23172;53.550;9.964;2023-07-31T10:36:13;2.03;;;1.85;;
37284;SDS011;23172;53.550;9.964;2023-07-31T10:41:16;1.80;;;1.67;;
37284;SDS011;23172;53.550;9.964;2023-07-31T10:46:20;1.60;;;1.50;;
37284;SDS011;23172;53.550;9.964;2023-07-31T10:51:24;1.60;;;1.40;;
37284;SDS011;23172;53.550;9.964;2023-07-31T10:56:37;2.10;;;1.37;;
37284;SDS011;23172;53.550;9.964;2023-07-31T11:01:53;2.33;;;1.90;;
37284;SDS011;23172;53.550;9.964;2023-07-31T11:06:57;3.20;;;2.90;;
37284;SDS011;23172;53.550;9.964;2023-07-31T11:12:00;3.80;;;3.37;;
37284;SDS011;23172;53.550;9.964;2023-07-31T11:17:07;5.37;;;4.57;;
37284;SDS011;23172;53.550;9.964;2023-07-31T11:22:09;8.47;;;7.20;;
37284;SDS011;23172;53.550;9.964;2023-07-31T11:27:11;5.90;;;5.23;;
37284;SDS011;23172;53.550;9.964;2023-07-31T11:32:16;6.47;;;5.70;;
37284;SDS011;23172;53.550;9.964;2023-07-31T11:37:19;6.07;;;5.47;;
37284;SDS011;23172;53.550;9.964;2023-07-31T11:42:21;4.37;;;3.97;;
37284;SDS011;23172;53.550;9.964;2023-07-31T11:47:26;3.83;;;3.53;;
37284;SDS011;23172;53.550;9.964;2023-07-31T11:52:29;4.47;;;3.70;;
37284;SDS011;23172;53.550;9.964;2023-07-31T11:57:31;2.65;;;2.45;;
37284;SDS011;23172;53.550;9.964;2023-07-31T12:02:36;4.13;;;3.33;;
37284;SDS011;23172;53.550;9.964;2023-07-31T12:07:43;2.63;;;2.33;;
37284;SDS011;23172;53.550;9.964;2023-07-31T12:12:54;3.00;;;2.17;;
37284;SDS011;23172;53.550;9.964;2023-07-31T12:17:58;4.00;;;3.30;;
37284;SDS011;23172;53.550;9.964;2023-07-31T12:23:01;1.90;;;1.60;;
37284;SDS011;23172;53.550;9.964;2023-07-31T12:28:06;1.45;;;1.33;;
37284;SDS011;23172;53.550;9.964;2023-07-31T12:33:16;2.00;;;1.58;;
37284;SDS011;23172;53.550;9.964;2023-07-31T12:38:20;1.65;;;1.30;;
37284;SDS011;23172;53.550;9.964;2023-07-31T12:43:22;2.30;;;1.10;;
37284;SDS011;23172;53.550;9.964;2023-07-31T12:48:26;1.30;;;1.20;;
37284;SDS011;23172;53.550;9.964;2023-07-31T12:53:28;2.10;;;1.30;;
37284;SDS011;23172;53.550;9.964;2023-07-31T12:58:30;1.63;;;1.30;;
37284;SDS011;23172;53.550;9.964;2023-07-31T13:03:34;2.20;;;1.70;;
37284;SDS011;23172;53.550;9.964;2023-07-31T13:08:36;3.35;;;2.45;;
37284;SDS011;23172;53.550;9.964;2023-07-31T13:13:38;2.58;;;2.38;;
37284;SDS011;23172;53.550;9.964;2023-07-31T13:18:42;2.60;;;2.23;;
37284;SDS011;23172;53.550;9.964;2023-07-31T13:23:44;3.13;;;2.83;;
37284;SDS011;23172;53.550;9.964;2023-07-31T13:28:46;5.90;;;4.57;;
37284;SDS011;23172;53.550;9.964;2023-07-31T13:33:49;3.33;;;3.03;;
37284;SDS011;23172;53.550;9.964;2023-07-31T13:38:51;3.40;;;3.10;;
37284;SDS011;23172;53.550;9.964;2023-07-31T13:43:53;5.00;;;4.50;;
37284;SDS011;23172;53.550;9.964;2023-07-31T13:48:57;3.70;;;3.30;;
37284;SDS011;23172;53.550;9.964;2023-07-31T13:53:59;3.90;;;3.60;;
37284;SDS011;23172;53.550;9.964;2023-07-31T13:59:01;4.88;;;4.43;;
37284;SDS011;23172;53.550;9.964;2023-07-31T14:04:05;6.10;;;5.50;;
37284;SDS011;23172;53.550;9.964;2023-07-31T14:09:07;3.00;;;2.80;;
37284;SDS011;23172;53.550;9.964;2023-07-31T14:14:09;2.58;;;2.30;;
37284;SDS011;23172;53.550;9.964;2023-07-31T14:19:13;4.07;;;3.33;;
37284;SDS011;23172;53.550;9.964;2023-07-31T14:24:16;2.20;;;2.00;;
37284;SDS011;23172;53.550;9.964;2023-07-31T14:29:18;2.30;;;2.10;;
37284;SDS011;23172;53.550;9.964;2023-07-31T14:34:21;2.50;;;1.95;;
37284;SDS011;23172;53.550;9.964;2023-07-31T14:39:23;3.35;;;1.85;;
37284;SDS011;23172;53.550;9.964;2023-07-31T14:44:26;2.40;;;1.60;;
37284;SDS011;23172;53.550;9.964;2023-07-31T14:49:29;4.28;;;2.83;;
37284;SDS011;23172;53.550;9.964;2023-07-31T14:54:31;2.53;;;2.30;;
37284;SDS011;23172;53.550;9.964;2023-07-31T14:59:33;4.70;;;4.30;;
37284;SDS011;23172;53.550;9.964;2023-07-31T15:04:37;2.65;;;2.42;;
37284;SDS011;23172;53.550;9.964;2023-07-31T15:09:39;4.40;;;4.00;;
37284;SDS011;23172;53.550;9.964;2023-07-31T15:14:41;3.63;;;3.33;;
37284;SDS011;23172;53.550;9.964;2023-07-31T15:19:45;3.20;;;2.90;;
37284;SDS011;23172;53.550;9.964;2023-07-31T15:24:47;2.80;;;2.60;;
37284;SDS011;23172;53.550;9.964;2023-07-31T15:29:49;4.18;;;3.83;;
37284;SDS011;23172;53.550;9.964;2023-07-31T15:34:53;2.80;;;2.60;;
37284;SDS011;23172;53.550;9.964;2023-07-31T15:39:55;3.80;;;3.28;;
37284;SDS011;23172;53.550;9.964;2023-07-31T15:44:57;5.82;;;3.85;;
37284;SDS011;23172;53.550;9.964;2023-07-31T15:50:01;4.88;;;3.70;;
37284;SDS011;23172;53.550;9.964;2023-07-31T15:55:03;7.60;;;6.10;;
37284;SDS011;23172;53.550;9.964;2023-07-31T16:00:06;5.68;;;3.88;;
37284;SDS011;23172;53.550;9.964;2023-07-31T16:05:10;3.78;;;3.47;;
37284;SDS011;23172;53.550;9.964;2023-07-31T16:10:13;5.10;;;4.60;;
37284;SDS011;23172;53.550;9.964;2023-07-31T16:15:15;4.70;;;4.30;;
37284;SDS011;23172;53.550;9.964;2023-07-31T16:20:18;6.90;;;4.57;;
37284;SDS011;23172;53.550;9.964;2023-07-31T16:25:20;4.82;;;4.10;;
37284;SDS011;23172;53.550;9.964;2023-07-31T16:30:22;4.10;;;3.80;;
37284;SDS011;23172;53.550;9.964;2023-07-31T16:35:26;4.00;;;3.70;;
37284;SDS011;23172;53.550;9.964;2023-07-31T16:40:29;4.75;;;4.00;;
37284;SDS011;23172;53.550;9.964;2023-07-31T16:45:31;4.10;;;3.70;;
37284;SDS011;23172;53.550;9.964;2023-07-31T16:50:34;4.85;;;4.35;;
37284;SDS011;23172;53.550;9.964;2023-07-31T16:55:37;3.70;;;3.40;;
37284;SDS011;23172;53.550;9.964;2023-07-31T17:00:39;4.95;;;4.47;;
37284;SDS011;23172;53.550;9.964;2023-07-31T17:05:42;3.20;;;2.90;;
37284;SDS011;23172;53.550;9.964;2023-07-31T17:10:45;3.50;;;3.30;;
37284;SDS011;23172;53.550;9.964;2023-07-31T17:15:47;4.37;;;3.97;;
37284;SDS011;23172;53.550;9.964;2023-07-31T17:20:51;4.20;;;3.80;;
37284;SDS011;23172;53.550;9.964;2023-07-31T17:25:53;3.35;;;3.15;;
37284;SDS011;23172;53.550;9.964;2023-07-31T17:30:55;4.20;;;3.80;;
37284;SDS011;23172;53.550;9.964;2023-07-31T17:35:59;4.70;;;4.30;;
37284;SDS011;23172;53.550;9.964;2023-07-31T17:41:01;6.70;;;6.20;;
37284;SDS011;23172;53.550;9.964;2023-07-31T17:46:03;9.73;;;8.83;;
37284;SDS011;23172;53.550;9.964;2023-07-31T17:51:07;9.00;;;8.30;;
37284;SDS011;23172;53.550;9.964;2023-07-31T17:56:09;7.50;;;6.80;;
37284;SDS011;23172;53.550;9.964;2023-07-31T18:01:11;7.10;;;6.50;;
37284;SDS011;23172;53.550;9.964;2023-07-31T18:06:15;6.65;;;6.05;;
37284;SDS011;23172;53.550;9.964;2023-07-31T18:11:17;6.32;;;5.72;;
37284;SDS011;23172;53.550;9.964;2023-07-31T18:16:20;6.80;;;6.20;;
37284;SDS011;23172;53.550;9.964;2023-07-31T18:21:23;7.28;;;6.57;;
37284;SDS011;23172;53.550;9.964;2023-07-31T18:26:25;6.07;;;5.30;;
37284;SDS011;23172;53.550;9.964;2023-07-31T18:31:28;7.63;;;6.25;;
37284;SDS011;23172;53.550;9.964;2023-07-31T18:36:32;8.27;;;7.47;;
37284;SDS011;23172;53.550;9.964;2023-07-31T18:41:35;7.10;;;6.43;;
37284;SDS011;23172;53.550;9.964;2023-07-31T18:46:39;7.88;;;7.18;;
37284;SDS011;23172;53.550;9.964;2023-07-31T18:51:42;7.33;;;6.63;;
37284;SDS011;23172;53.550;9.964;2023-07-31T18:56:47;7.70;;;7.00;;
37284;SDS011;23172;53.550;9.964;2023-07-31T19:01:49;8.73;;;7.93;;
37284;SDS011;23172;53.550;9.964;2023-07-31T19:06:52;7.17;;;6.47;;
37284;SDS011;23172;53.550;9.964;2023-07-31T19:11:55;7.53;;;6.90;;
37284;SDS011;23172;53.550;9.964;2023-07-31T19:16:57;6.68;;;6.05;;
37284;SDS011;23172;53.550;9.964;2023-07-31T19:22:00;8.50;;;7.70;;
37284;SDS011;23172;53.550;9.964;2023-07-31T19:27:03;8.48;;;7.68;;
37284;SDS011;23172;53.550;9.964;2023-07-31T19:32:05;9.67;;;8.83;;
37284;SDS011;23172;53.550;9.964;2023-07-31T19:37:09;11.00;;;9.88;;
37284;SDS011;23172;53.550;9.964;2023-07-31T19:42:11;8.93;;;8.13;;
37284;SDS011;23172;53.550;9.964;2023-07-31T19:47:13;7.13;;;6.53;;
37284;SDS011;23172;53.550;9.964;2023-07-31T19:52:17;8.27;;;7.35;;
37284;SDS011;23172;53.550;9.964;2023-07-31T19:57:19;16.73;;;15.03;;
37284;SDS011;23172;53.550;9.964;2023-07-31T20:02:21;6.97;;;6.38;;
37284;SDS011;23172;53.550;9.964;2023-07-31T20:07:25;7.40;;;6.80;;
37284;SDS011;23172;53.550;9.964;2023-07-31T20:12:28;8.35;;;7.55;;
37284;SDS011;23172;53.550;9.964;2023-07-31T20:17:30;9.05;;;8.25;;
37284;SDS011;23172;53.550;9.964;2023-07-31T20:22:34;8.40;;;7.70;;
37284;SDS011;23172;53.550;9.964;2023-07-31T20:27:36;8.17;;;7.47;;
37284;SDS011;23172;53.550;9.964;2023-07-31T20:32:38;9.00;;;8.20;;
37284;SDS011;23172;53.550;9.964;2023-07-31T20:37:41;7.28;;;6.57;;
37284;SDS011;23172;53.550;9.964;2023-07-31T20:42:54;8.23;;;7.47;;
37284;SDS011;23172;53.550;9.964;2023-07-31T20:47:56;7.50;;;6.80;;
37284;SDS011;23172;53.550;9.964;2023-07-31T20:53:00;6.45;;;5.85;;
37284;SDS011;23172;53.550;9.964;2023-07-31T20:58:03;7.23;;;6.63;;
37284;SDS011;23172;53.550;9.964;2023-07-31T21:03:05;5.57;;;5.07;;
37284;SDS011;23172;53.550;9.964;2023-07-31T21:08:09;4.97;;;4.57;;
37284;SDS011;23172;53.550;9.964;2023-07-31T21:13:11;4.83;;;4.43;;
37284;SDS011;23172;53.550;9.964;2023-07-31T21:18:13;4.30;;;4.00;;
37284;SDS011;23172;53.550;9.964;2023-07-31T21:23:17;6.87;;;6.27;;
37284;SDS011;23172;53.550;9.964;2023-07-31T21:28:19;5.70;;;5.20;;
37284;SDS011;23172;53.550;9.964;2023-07-31T21:33:22;5.55;;;5.05;;
37284;SDS011;23172;53.550;9.964;2023-07-31T21:38:26;3.77;;;3.37;;
37284;SDS011;23172;53.550;9.964;2023-07-31T21:43:28;3.97;;;3.53;;
37284;SDS011;23172;53.550;9.964;2023-07-31T21:48:30;4.60;;;4.20;;
37284;SDS011;23172;53.550;9.964;2023-07-31T21:53:34;3.60;;;3.30;;
37284;SDS011;23172;53.550;9.964;2023-07-31T21:58:36;4.00;;;3.70;;
37284;SDS011;23172;53.550;9.964;2023-07-31T22:03:38;3.00;;;2.80;;
37284;SDS011;23172;53.550;9.964;2023-07-31T22:08:42;2.80;;;2.60;;
37284;SDS011;23172;53.550;9.964;2023-07-31T22:13:44;3.40;;;3.10;;
37284;SDS011;23172;53.550;9.964;2023-07-31T22:18:46;2.80;;;2.60;;
37284;SDS011;23172;53.550;9.964;2023-07-31T22:23:49;3.27;;;2.77;;
37284;SDS011;23172;53.550;9.964;2023-07-31T22:28:52;2.30;;;2.10;;
37284;SDS011;23172;53.550;9.964;2023-07-31T22:33:57;2.97;;;2.65;;
37284;SDS011;23172;53.550;9.964;2023-07-31T22:39:00;3.73;;;3.43;;
37284;SDS011;23172;53.550;9.964;2023-07-31T22:44:04;3.65;;;3.03;;
37284;SDS011;23172;53.550;9.964;2023-07-31T22:49:06;3.47;;;3.17;;
37284;SDS011;23172;53.550;9.964;2023-07-31T22:54:09;3.80;;;3.50;;
37284;SDS011;23172;53.550;9.964;2023-07-31T22:59:11;4.13;;;3.75;;
37284;SDS011;23172;53.550;9.964;2023-07-31T23:04:13;3.90;;;3.50;;
37284;SDS011;23172;53.550;9.964;2023-07-31T23:09:17;4.50;;;4.10;;
37284;SDS011;23172;53.550;9.964;2023-07-31T23:14:19;3.60;;;3.30;;
37284;SDS011;23172;53.550;9.964;2023-07-31T23:19:21;3.58;;;3.30;;
37284;SDS011;23172;53.550;9.964;2023-07-31T23:24:26;4.30;;;4.00;;
37284;SDS011;23172;53.550;9.964;2023-07-31T23:29:28;5.05;;;4.57;;
37284;SDS011;23172;53.550;9.964;2023-07-31T23:34:30;4.05;;;3.75;;
37284;SDS011;23172;53.550;9.964;2023-07-31T23:39:33;4.43;;;4.03;;
37284;SDS011;23172;53.550;9.964;2023-07-31T23:44:35;4.07;;;3.78;;
37284;SDS011;23172;53.550;9.964;2023-07-31T23:49:38;4.20;;;3.78;;
37284;SDS011;23172;53.550;9.964;2023-07-31T23:54:41;4.63;;;4.23;;
37284;SDS011;23172;53.550;9.964;2023-07-31T23:59:43;4.75;;;4.30;;
